Time;durP1;ratioP1;P1;durP2;ratioP2;P2;SDS_P1;SDS_P2;PMS_P1;PMS_P2;Temp;Humidity;BMP_temperature;BMP_pressure;BME280_temperature;BME280_humidity;BME280_pressure;Samples;Min_cycle;Max_cycle;Signal;HPM_P1;HPM_P2
2024/03/15 00:00:56;;;;;;;30.77;14.63;;;;;;;-0.18;100.00;99839.66;4959251;28;20046;-73
2024/03/15 00:03:23;;;;;;;22.50;13.63;;;;;;;-0.16;100.00;99818.69;4975006;28;20116;-74
2024/03/15 00:05:49;;;;;;;23.07;13.37;;;;;;;-0.18;100.00;99813.56;4927299;28;20392;-74
2024/03/15 00:08:16;;;;;;;21.83;12.70;;;;;;;-0.18;100.00;99829.22;4943176;28;20062;-74
2024/03/15 00:10:43;;;;;;;20.00;12.27;;;;;;;-0.08;100.00;99813.88;4975697;28;20050;-74
2024/03/15 00:13:11;;;;;;;23.90;14.13;;;;;;;-0.09;100.00;99815.63;4958583;28;20133;-74
2024/03/15 00:15:39;;;;;;;25.43;14.00;;;;;;;-0.11;100.00;99820.09;4975409;28;20054;-75
2024/03/15 00:18:05;;;;;;;24.43;14.03;;;;;;;-0.09;100.00;99817.41;4927659;28;20088;-73
2024/03/15 00:20:31;;;;;;;26.23;14.40;;;;;;;-0.11;100.00;99807.03;4961217;28;20065;-74
2024/03/15 00:22:57;;;;;;;21.37;14.13;;;;;;;-0.13;100.00;99808.91;4966736;28;20415;-74
2024/03/15 00:25:23;;;;;;;24.60;14.90;;;;;;;-0.15;100.00;99813.38;4966170;28;20053;-74
2024/03/15 00:27:49;;;;;;;21.43;14.50;;;;;;;-0.13;100.00;99814.13;4966073;28;20049;-74
2024/03/15 00:30:15;;;;;;;26.73;14.40;;;;;;;-0.12;100.00;99804.53;4966238;28;20049;-74
2024/03/15 00:32:41;;;;;;;25.53;14.57;;;;;;;-0.15;100.00;99818.59;4958359;28;20058;-74
2024/03/15 00:35:09;;;;;;;23.33;14.37;;;;;;;-0.07;100.00;99808.56;4995321;28;20053;-74
2024/03/15 00:37:37;;;;;;;25.53;15.23;;;;;;;-0.18;100.00;99818.78;4965333;28;20148;-74
2024/03/15 00:40:06;;;;;;;24.37;14.47;;;;;;;-0.15;100.00;99815.97;4974257;28;20176;-74
2024/03/15 00:42:34;;;;;;;25.77;14.93;;;;;;;-0.12;100.00;99807.97;4936135;29;20506;-74
2024/03/15 00:45:00;;;;;;;25.73;14.80;;;;;;;-0.13;100.00;99814.13;4936646;29;20055;-73
2024/03/15 00:47:31;;;;;;;24.15;15.18;;;;;;;-0.13;100.00;99801.09;4937294;29;20051;-73
2024/03/15 00:49:56;;;;;;;25.47;14.93;;;;;;;-0.13;100.00;99805.47;4920857;29;20542;-71
2024/03/15 00:52:23;;;;;;;28.27;16.43;;;;;;;-0.18;100.00;99810.94;4920402;29;20494;-73
2024/03/15 00:54:52;;;;;;;27.70;16.23;;;;;;;-0.15;100.00;99802.94;4938708;29;20055;-73
2024/03/15 00:57:19;;;;;;;28.47;15.83;;;;;;;-0.25;100.00;99806.97;4929353;29;20057;-73
2024/03/15 00:59:46;;;;;;;26.63;15.50;;;;;;;-0.22;100.00;99804.22;4907699;29;20082;-73
2024/03/15 01:02:12;;;;;;;25.17;14.50;;;;;;;-0.25;100.00;99801.75;4923681;29;20046;-75
2024/03/15 01:04:39;;;;;;;27.93;15.87;;;;;;;-0.24;100.00;99800.84;4990804;28;20042;-73
2024/03/15 01:07:06;;;;;;;28.07;15.70;;;;;;;-0.29;100.00;99796.81;4977724;28;20047;-72
2024/03/15 01:09:31;;;;;;;26.33;16.10;;;;;;;-0.29;100.00;99805.47;4978005;28;20050;-71
2024/03/15 01:11:57;;;;;;;30.13;16.60;;;;;;;-0.33;100.00;99798.75;4979855;28;20076;-74
2024/03/15 01:14:23;;;;;;;27.70;15.73;;;;;;;-0.32;100.00;99808.25;5021018;28;20044;-72
2024/03/15 01:16:49;;;;;;;28.00;16.33;;;;;;;-0.31;100.00;99796.88;5037174;28;20049;-73
2024/03/15 01:19:19;;;;;;;40.83;16.33;;;;;;;-0.33;100.00;99795.31;5019528;28;20597;-73
2024/03/15 01:21:45;;;;;;;28.67;17.30;;;;;;;-0.41;100.00;99794.88;5002627;28;20106;-73
2024/03/15 01:24:12;;;;;;;30.93;17.40;;;;;;;-0.40;100.00;99809.63;5018994;28;20695;-73
2024/03/15 01:26:38;;;;;;;29.63;16.07;;;;;;;-0.40;100.00;99799.19;5035876;28;20228;-73
2024/03/15 01:29:05;;;;;;;29.13;17.30;;;;;;;-0.38;100.00;99794.72;5018193;28;20041;-73
2024/03/15 01:31:31;;;;;;;28.63;17.23;;;;;;;-0.44;100.00;99797.66;5018525;28;20451;-72
2024/03/15 01:33:58;;;;;;;26.07;16.77;;;;;;;-0.41;100.00;99800.97;5018839;28;20064;-72
2024/03/15 01:36:24;;;;;;;28.73;17.93;;;;;;;-0.44;100.00;99793.31;5037463;28;20040;-71
2024/03/15 01:38:53;;;;;;;26.30;16.77;;;;;;;-0.45;100.00;99804.69;5023501;28;20087;-72
2024/03/15 01:41:20;;;;;;;32.07;18.77;;;;;;;-0.43;100.00;99797.59;5046176;28;20045;-74
2024/03/15 01:43:49;;;;;;;28.60;16.63;;;;;;;-0.44;100.00;99798.53;5016438;28;20455;-74
2024/03/15 01:46:15;;;;;;;31.93;18.60;;;;;;;-0.50;100.00;99805.84;5008728;28;20052;-73
2024/03/15 01:48:45;;;;;;;29.93;18.13;;;;;;;-0.45;100.00;99806.44;5038701;28;20040;-75
2024/03/15 01:51:13;;;;;;;;;;;;;;;-0.39;100.00;99811.31;5054897;28;20041;-74
2024/03/15 01:53:43;;;;;;;36.10;17.93;;;;;;;-0.55;100.00;99803.50;5005062;28;19963;-72
2024/03/15 01:56:09;;;;;;;29.73;17.73;;;;;;;-0.53;100.00;99813.84;4999941;28;20046;-73
2024/03/15 01:58:36;;;;;;;34.20;18.80;;;;;;;-0.49;100.00;99804.91;5015943;28;20061;-72
2024/03/15 02:01:06;;;;;;;27.30;17.43;;;;;;;-0.55;100.00;99803.50;5000215;28;20049;-73
2024/03/15 02:03:35;;;;;;;30.03;17.83;;;;;;;-0.61;100.00;99809.03;4999303;28;20146;-73
2024/03/15 02:06:04;;;;;;;37.00;18.00;;;;;;;-0.67;100.00;99798.94;4998582;28;20407;-73
2024/03/15 02:08:33;;;;;;;29.67;18.27;;;;;;;-0.68;100.00;99812.06;4985004;28;20045;-72
2024/03/15 02:10:59;;;;;;;31.03;18.70;;;;;;;-0.72;100.00;99819.22;5002471;28;20064;-73
2024/03/15 02:13:28;;;;;;;34.33;18.93;;;;;;;-0.63;100.00;99823.09;4964882;28;20102;-74
2024/03/15 02:15:57;;;;;;;37.27;19.40;;;;;;;-0.66;100.00;99823.28;4962061;28;20058;-74
2024/03/15 02:18:23;;;;;;;30.87;19.37;;;;;;;-0.79;100.00;99823.09;4945414;28;20058;-74
2024/03/15 02:20:49;;;;;;;36.77;20.63;;;;;;;-0.75;100.00;99814.16;4944987;28;20042;-74
2024/03/15 02:23:15;;;;;;;33.80;18.97;;;;;;;-0.69;100.00;99823.44;4929925;28;20120;-76
2024/03/15 02:25:43;;;;;;;32.80;18.93;;;;;;;-0.68;100.00;99815.53;4962281;28;20070;-74
2024/03/15 02:28:09;;;;;;;31.33;19.40;;;;;;;-0.66;100.00;99821.47;4948324;28;20060;-75
2024/03/15 02:30:35;;;;;;;35.07;19.20;;;;;;;-0.69;100.00;99818.22;4963763;28;20077;-74
2024/03/15 02:33:01;;;;;;;34.27;19.67;;;;;;;-0.71;100.00;99820.06;4979366;28;20121;-72
2024/03/15 02:35:30;;;;;;;32.03;19.17;;;;;;;-0.72;100.00;99819.22;4995399;28;20054;-75
2024/03/15 02:37:56;;;;;;;35.40;19.87;;;;;;;-0.71;100.00;99822.69;4940600;28;20153;-74
2024/03/15 02:40:23;;;;;;;33.57;19.47;;;;;;;-0.73;100.00;99827.13;4940538;28;20137;-73
2024/03/15 02:42:49;;;;;;;32.97;19.10;;;;;;;-0.75;100.00;99835.03;4956929;28;20394;-73
2024/03/15 02:45:14;;;;;;;33.23;19.03;;;;;;;-0.73;100.00;99822.75;4937476;29;20055;-73
2024/03/15 02:47:40;;;;;;;39.13;20.47;;;;;;;-0.72;100.00;99832.25;4953046;29;20067;-72
2024/03/15 02:50:07;;;;;;;39.47;21.63;;;;;;;-0.76;100.00;99822.94;4890405;29;20051;-74
2024/03/15 02:52:33;;;;;;;35.77;20.17;;;;;;;-0.73;100.00;99827.97;4937445;29;20421;-74
2024/03/15 02:54:59;;;;;;;38.13;21.67;;;;;;;-0.70;100.00;99814.78;4940733;28;20153;-75
2024/03/15 02:57:25;;;;;;;36.07;21.87;;;;;;;-0.72;100.00;99823.56;4940960;28;20058;-73
2024/03/15 02:59:52;;;;;;;38.33;21.40;;;;;;;-0.72;100.00;99818.38;4956432;28;20063;-72
2024/03/15 03:02:18;;;;;;;38.07;22.03;;;;;;;-0.72;100.00;99824.44;4956631;28;20047;-67
2024/03/15 03:04:45;;;;;;;37.50;22.07;;;;;;;-0.72;100.00;99820.97;4940312;28;20057;-69
2024/03/15 03:07:11;;;;;;;37.33;21.13;;;;;;;-0.71;100.00;99828.72;4940026;28;20042;-73
2024/03/15 03:09:37;;;;;;;37.40;21.27;;;;;;;-0.71;100.00;99831.31;4964771;28;20055;-74
2024/03/15 03:12:02;;;;;;;33.87;20.67;;;;;;;-0.69;100.00;99826.88;4924054;28;20055;-71
2024/03/15 03:14:29;;;;;;;38.30;19.93;;;;;;;-0.70;100.00;99824.34;4940321;28;20119;-70
2024/03/15 03:16:55;;;;;;;36.70;21.63;;;;;;;-0.69;100.00;99826.88;4973776;28;20057;-72
2024/03/15 03:19:23;;;;;;;38.17;21.33;;;;;;;-0.77;100.00;99830.84;4997872;28;20058;-67
2024/03/15 03:21:50;;;;;;;39.03;22.17;;;;;;;-0.76;100.00;99832.50;5014531;28;20037;-68
2024/03/15 03:24:17;;;;;;;38.30;21.80;;;;;;;-0.71;100.00;99823.50;5014738;28;20050;-75
2024/03/15 03:26:43;;;;;;;34.30;20.47;;;;;;;-0.72;100.00;99832.25;4966145;28;20067;-75
2024/03/15 03:29:09;;;;;;;40.87;21.67;;;;;;;-0.74;100.00;99833.28;4998545;28;20057;-74
2024/03/15 03:31:35;;;;;;;38.13;21.43;;;;;;;-0.68;100.00;99841.63;4982232;28;20562;-75
2024/03/15 03:34:00;;;;;;;39.53;21.13;;;;;;;-0.72;100.00;99832.25;5014566;28;20068;-75
2024/03/15 03:36:27;;;;;;;36.70;21.73;;;;;;;-0.69;100.00;99834.69;4982090;28;20506;-78
2024/03/15 03:38:54;;;;;;;39.13;20.67;;;;;;;-0.66;100.00;99837.13;4981992;28;20033;-71
2024/03/15 03:41:23;;;;;;;36.30;20.83;;;;;;;-0.64;100.00;99835.28;5002053;28;20339;-75
2024/03/15 03:43:49;;;;;;;37.43;21.47;;;;;;;-0.59;100.00;99819.38;5020085;28;20068;-75
2024/03/15 03:46:16;;;;;;;35.33;20.77;;;;;;;-0.55;100.00;99842.63;5035541;28;20044;-76
2024/03/15 03:48:43;;;;;;;37.53;21.30;;;;;;;-0.58;100.00;99831.50;5035319;28;20049;-75
2024/03/15 03:51:09;;;;;;;37.27;20.90;;;;;;;-0.55;100.00;99842.63;5018014;28;20052;-77
2024/03/15 03:53:36;;;;;;;39.70;21.53;;;;;;;-0.63;100.00;99839.56;5018944;28;20387;-73
2024/03/15 03:56:02;;;;;;;38.87;22.43;;;;;;;-0.66;100.00;99834.53;4997509;28;20064;-75
2024/03/15 03:58:28;;;;;;;37.97;22.63;;;;;;;-0.56;100.00;99846.16;4987157;28;20057;-74
2024/03/15 04:00:55;;;;;;;41.67;23.00;;;;;;;-0.50;100.00;99844.97;4981618;28;20049;-75
2024/03/15 04:03:21;;;;;;;38.93;21.73;;;;;;;-0.49;100.00;99841.41;5008044;28;20044;-72
2024/03/15 04:05:47;;;;;;;35.60;21.20;;;;;;;-0.48;100.00;99851.78;5006287;28;20456;-75
2024/03/15 04:08:13;;;;;;;33.57;20.50;;;;;;;-0.45;100.00;99846.41;5017508;28;20045;-74
2024/03/15 04:10:39;;;;;;;33.70;20.93;;;;;;;-0.42;100.00;99859.28;5012404;28;20142;-74
2024/03/15 04:13:06;;;;;;;35.60;20.43;;;;;;;-0.35;100.00;99859.78;4954941;28;20461;-72
2024/03/15 04:15:33;;;;;;;38.53;21.07;;;;;;;-0.32;100.00;99859.59;4958853;28;20058;-72
2024/03/15 04:18:03;;;;;;;38.17;21.97;;;;;;;-0.30;100.00;99858.59;4973321;28;20120;-68
2024/03/15 04:20:29;;;;;;;36.13;21.03;;;;;;;-0.21;100.00;99849.41;4965591;28;20070;-73
2024/03/15 04:22:56;;;;;;;35.80;20.07;;;;;;;-0.20;100.00;99867.59;4947419;28;20046;-71
2024/03/15 04:25:23;;;;;;;38.67;21.70;;;;;;;-0.21;100.00;99868.53;4962593;28;20054;-72
2024/03/15 04:27:52;;;;;;;35.97;20.97;;;;;;;-0.17;100.00;99864.81;4965378;28;20058;-76
2024/03/15 04:30:22;;;;;;;33.87;19.80;;;;;;;-0.15;100.00;99849.91;4946880;28;20066;-74
2024/03/15 04:32:55;;;;;;;38.53;20.33;;;;;;;-0.07;100.00;99866.00;4948009;28;20046;-75
2024/03/15 04:35:22;;;;;;;35.13;21.63;;;;;;;-0.09;100.00;99852.19;4950155;28;20161;-73
2024/03/15 04:37:49;;;;;;;37.03;20.87;;;;;;;-0.05;100.00;99866.72;4948429;28;20465;-73
2024/03/15 04:40:14;;;;;;;37.70;21.03;;;;;;;-0.01;100.00;99868.25;4965352;28;20061;-74
2024/03/15 04:42:40;;;;;;;38.53;21.47;;;;;;;0.02;100.00;99859.41;5019929;28;20403;-72
2024/03/15 04:45:09;;;;;;;36.73;20.17;;;;;;;0.05;100.00;99880.13;5055317;28;20056;-72
2024/03/15 04:47:40;;;;;;;42.27;22.50;;;;;;;0.11;100.00;99861.47;5061152;28;20055;-73
2024/03/15 04:50:08;;;;;;;40.15;21.52;;;;;;;0.16;100.00;99856.84;5048690;28;20468;-73
2024/03/15 04:52:36;;;;;;;33.53;20.00;;;;;;;0.21;100.00;99872.25;4989520;28;20503;-72
2024/03/15 04:55:04;;;;;;;33.80;20.23;;;;;;;0.26;100.00;99870.22;5021647;28;20065;-76
2024/03/15 04:57:31;;;;;;;34.37;21.30;;;;;;;0.27;100.00;99869.28;4987870;28;20057;-79
2024/03/15 04:59:58;;;;;;;33.37;20.47;;;;;;;0.29;100.00;99870.06;5021360;28;20041;-76
2024/03/15 05:02:23;;;;;;;37.80;21.33;;;;;;;0.31;100.00;99882.09;4972511;28;20137;-74
2024/03/15 05:04:49;;;;;;;38.60;22.60;;;;;;;0.32;100.00;99872.47;4942018;28;20062;-77
2024/03/15 05:07:17;;;;;;;35.23;19.90;;;;;;;0.37;100.00;99871.28;4956658;28;20051;-75
2024/03/15 05:09:46;;;;;;;34.97;21.20;;;;;;;0.46;100.00;99869.91;4935297;29;20062;-73
2024/03/15 05:12:12;;;;;;;35.93;19.27;;;;;;;0.43;100.00;99872.72;4951155;28;20070;-72
2024/03/15 05:14:38;;;;;;;34.90;20.07;;;;;;;0.35;100.00;99870.53;4934067;29;20051;-72
2024/03/15 05:17:04;;;;;;;38.90;21.43;;;;;;;0.42;100.00;99868.41;4919851;29;20521;-72
2024/03/15 05:19:30;;;;;;;36.97;20.47;;;;;;;0.44;100.00;99861.31;4951475;28;20453;-73
2024/03/15 05:21:58;;;;;;;36.37;20.87;;;;;;;0.49;100.00;99864.50;4935365;29;20051;-73
2024/03/15 05:24:28;;;;;;;35.90;20.27;;;;;;;0.53;100.00;99866.84;4934266;29;20150;-72
2024/03/15 05:26:54;;;;;;;34.43;20.43;;;;;;;0.60;100.00;99870.78;4918666;29;20058;-71
2024/03/15 05:29:20;;;;;;;41.50;21.60;;;;;;;0.64;100.00;99880.13;4927173;28;20428;-73
2024/03/15 05:31:46;;;;;;;40.37;21.47;;;;;;;0.61;100.00;99866.41;4974601;28;20065;-73
2024/03/15 05:34:15;;;;;;;36.03;21.30;;;;;;;0.74;100.00;99883.88;4974679;28;20109;-73
2024/03/15 05:36:41;;;;;;;37.63;21.17;;;;;;;0.75;100.00;99874.28;4959015;28;20160;-74
2024/03/15 05:39:10;;;;;;;36.70;21.17;;;;;;;0.80;100.00;99880.06;4966947;28;20571;-74
2024/03/15 05:41:39;;;;;;;39.37;20.97;;;;;;;0.90;100.00;99873.34;5000256;28;20049;-73
2024/03/15 05:44:05;;;;;;;36.33;20.17;;;;;;;0.97;100.00;99875.50;5017422;28;20041;-74
2024/03/15 05:46:33;;;;;;;33.20;20.43;;;;;;;1.03;100.00;99880.34;5026268;28;20065;-73
2024/03/15 05:49:00;;;;;;;33.10;19.80;;;;;;;1.06;100.00;99887.19;5053845;28;20075;-74
2024/03/15 05:51:27;;;;;;;41.77;20.70;;;;;;;1.11;100.00;99877.28;5055267;28;20049;-72
2024/03/15 05:53:55;;;;;;;34.90;20.27;;;;;;;1.13;100.00;99888.50;5071273;28;20040;-73
2024/03/15 05:56:23;;;;;;;37.87;20.77;;;;;;;1.18;100.00;99892.53;5024155;28;20037;-74
2024/03/15 05:58:50;;;;;;;39.33;21.77;;;;;;;1.26;100.00;99894.69;5059752;28;20168;-73
2024/03/15 06:01:17;;;;;;;33.83;20.27;;;;;;;1.37;100.00;99890.44;5060940;28;20147;-73
2024/03/15 06:03:43;;;;;;;39.57;21.40;;;;;;;1.52;100.00;99896.53;5025590;28;20128;-73
2024/03/15 06:06:10;;;;;;;37.50;21.97;;;;;;;1.58;100.00;99896.16;5022616;28;20122;-74
2024/03/15 06:08:36;;;;;;;39.10;21.47;;;;;;;1.71;100.00;99894.44;5005924;28;20041;-73
2024/03/15 06:11:04;;;;;;;46.03;21.97;;;;;;;1.80;100.00;99895.66;5021405;28;20048;-73
2024/03/15 06:13:30;;;;;;;35.47;20.10;;;;;;;1.94;100.00;99891.19;5021206;28;20045;-73
2024/03/15 06:15:58;;;;;;;37.33;20.10;;;;;;;2.04;100.00;99894.06;5037627;28;20036;-72
2024/03/15 06:18:24;;;;;;;37.43;20.20;;;;;;;2.17;100.00;99890.56;5004932;28;20090;-74
2024/03/15 06:20:51;;;;;;;40.70;20.33;;;;;;;2.27;100.00;99894.28;5037089;28;20062;-73
2024/03/15 06:23:18;;;;;;;37.30;19.63;;;;;;;2.43;100.00;99902.78;5037255;28;20041;-73
2024/03/15 06:25:44;;;;;;;41.90;21.27;;;;;;;2.51;100.00;99911.00;4980026;28;20065;-73
2024/03/15 06:28:11;;;;;;;40.30;20.57;;;;;;;2.61;100.00;99895.50;4996379;28;20159;-73
2024/03/15 06:30:44;;;;;;;32.47;20.57;;;;;;;2.79;100.00;99908.25;5012763;28;20093;-74
2024/03/15 06:33:11;;;;;;;34.33;20.63;;;;;;;2.87;100.00;99899.84;4997195;28;20050;-74
2024/03/15 06:35:38;;;;;;;33.63;19.27;;;;;;;3.00;100.00;99896.28;4995992;28;20440;-74
2024/03/15 06:38:17;;;;;;;35.30;19.70;;;;;;;3.10;100.00;99905.22;5012354;28;20050;-73
2024/03/15 06:40:55;;;;;;;34.33;19.07;;;;;;;3.15;100.00;99908.34;4995916;28;20135;-72
2024/03/15 06:43:41;;;;;;;35.47;19.70;;;;;;;3.30;100.00;99904.69;4995706;28;20072;-73
2024/03/15 06:46:19;;;;;;;34.07;17.80;;;;;;;3.41;100.00;99899.53;4979738;28;20477;-74
2024/03/15 06:48:59;;;;;;;37.93;19.30;;;;;;;3.46;100.00;99904.44;4979392;28;20149;-73
2024/03/15 06:54:14;;;;;;;35.40;18.77;;;;;;;3.74;100.00;99908.63;5011872;28;20042;-71
2024/03/15 06:56:41;;;;;;;31.00;18.00;;;;;;;3.84;100.00;99913.13;4963837;28;20485;-73
2024/03/15 06:59:11;;;;;;;28.40;17.07;;;;;;;4.02;100.00;99910.94;4979639;28;20042;-72
2024/03/15 07:01:37;;;;;;;29.67;18.27;;;;;;;4.14;100.00;99903.03;4996313;28;20042;-73
2024/03/15 07:04:08;;;;;;;27.50;17.27;;;;;;;4.26;100.00;99902.13;5032362;28;20076;-73
2024/03/15 07:06:36;;;;;;;29.83;18.03;;;;;;;4.40;100.00;99901.94;5021696;28;20047;-73
2024/03/15 07:09:11;;;;;;;29.80;18.20;;;;;;;4.64;100.00;99909.84;5035797;28;20056;-73
2024/03/15 07:11:37;;;;;;;27.17;17.17;;;;;;;4.71;100.00;99898.72;5052432;28;20040;-74
2024/03/15 07:14:04;;;;;;;28.93;17.63;;;;;;;4.93;100.00;99901.44;5002190;28;20055;-73
2024/03/15 07:16:31;;;;;;;27.83;17.07;;;;;;;5.11;100.00;99909.72;5019375;28;20068;-71
2024/03/15 07:18:59;;;;;;;27.07;16.90;;;;;;;5.20;100.00;99906.38;5069063;28;20064;-74
2024/03/15 07:21:26;;;;;;;26.67;16.70;;;;;;;5.43;100.00;99915.97;5051995;28;20505;-73
2024/03/15 07:23:52;;;;;;;29.37;18.10;;;;;;;5.56;100.00;99906.16;5035538;28;20051;-74
2024/03/15 07:26:19;;;;;;;29.40;17.63;;;;;;;5.81;100.00;99900.63;5018833;28;20053;-74
2024/03/15 07:28:45;;;;;;;27.70;18.30;;;;;;;6.27;100.00;99893.38;5019089;28;20390;-73
2024/03/15 07:31:11;;;;;;;29.60;18.40;;;;;;;7.03;100.00;99906.34;5018941;28;20079;-74
2024/03/15 07:33:37;;;;;;;27.02;18.13;;;;;;;8.57;98.96;99902.31;5049104;28;20040;-74
2024/03/15 07:36:07;;;;;;;33.85;18.30;;;;;;;9.98;85.21;99900.41;4983253;28;20087;-74
2024/03/15 07:38:35;;;;;;;26.88;16.20;;;;;;;11.83;71.60;99911.69;5000272;28;20037;-74
2024/03/15 07:41:01;;;;;;;21.95;15.57;;;;;;;13.25;60.17;99905.13;4999377;28;20055;-75
2024/03/15 07:43:27;;;;;;;21.95;15.05;;;;;;;14.10;53.17;99898.25;4983039;28;20040;-74
2024/03/15 07:45:52;;;;;;;21.45;15.55;;;;;;;14.48;48.66;99895.56;5015315;28;20056;-75
2024/03/15 07:48:19;;;;;;;19.42;15.05;;;;;;;14.99;46.53;99886.00;4997718;28;20064;-74
2024/03/15 07:50:46;;;;;;;20.98;15.45;;;;;;;15.74;43.75;99884.94;5031622;28;20037;-74
2024/03/15 07:53:14;;;;;;;23.80;14.00;;;;;;;15.64;41.38;99894.22;5015254;28;20055;-75
2024/03/15 07:55:40;;;;;;;21.85;14.00;;;;;;;15.32;41.04;99911.44;4982874;28;20033;-75
2024/03/15 07:58:06;;;;;;;21.65;14.50;;;;;;;15.09;41.20;99898.09;4999967;28;20488;-75
2024/03/15 08:00:32;;;;;;;18.42;13.00;;;;;;;15.03;40.65;99900.66;5033284;28;20095;-75
2024/03/15 08:02:57;;;;;;;21.67;14.38;;;;;;;14.36;41.42;99898.81;5015111;28;20033;-75
2024/03/15 08:05:26;;;;;;;18.20;13.52;;;;;;;14.13;42.87;99901.38;5032699;28;20515;-75
2024/03/15 08:07:54;;;;;;;19.60;14.57;;;;;;;14.08;42.73;99901.09;5032369;28;20053;-75
2024/03/15 08:10:22;;;;;;;19.73;13.98;;;;;;;14.10;42.77;99900.91;4999089;28;20037;-75
2024/03/15 08:12:47;;;;;;;21.67;13.35;;;;;;;12.83;44.02;99898.28;5000114;28;20041;-74
2024/03/15 08:15:13;;;;;;;21.40;14.32;;;;;;;11.85;46.14;99890.25;4998556;28;20132;-75
2024/03/15 08:17:40;;;;;;;18.60;13.88;;;;;;;11.96;48.30;99908.59;4998275;28;20038;-75
2024/03/15 08:20:10;;;;;;;19.33;14.98;;;;;;;12.74;47.32;99894.81;5015347;28;20041;-75
2024/03/15 08:22:40;;;;;;;20.30;13.93;;;;;;;13.36;45.88;99907.47;4983681;28;20061;-74
2024/03/15 08:25:07;;;;;;;19.58;13.82;;;;;;;13.44;44.79;99898.59;5032293;28;20077;-76
2024/03/15 08:27:34;;;;;;;17.80;14.18;;;;;;;13.61;44.26;99900.22;4971329;28;20102;-72
2024/03/15 08:30:03;;;;;;;17.85;12.65;;;;;;;12.98;44.55;99901.94;4940181;28;20470;-75
2024/03/15 08:32:32;;;;;;;18.77;13.38;;;;;;;13.34;44.78;99879.28;4905771;29;20385;-76
2024/03/15 08:35:02;;;;;;;18.95;13.50;;;;;;;13.59;43.83;99895.06;4946303;28;20149;-76
2024/03/15 08:37:31;;;;;;;16.60;12.80;;;;;;;13.48;43.82;99884.75;4975391;28;20058;-75
2024/03/15 08:40:02;;;;;;;16.77;12.75;;;;;;;13.38;44.04;99894.78;4959158;28;20133;-76
2024/03/15 08:42:30;;;;;;;17.35;12.57;;;;;;;13.00;44.96;99881.34;4975311;28;20277;-75
2024/03/15 08:45:00;;;;;;;17.02;12.93;;;;;;;12.17;46.35;99879.72;4974622;28;20517;-75
2024/03/15 08:47:30;;;;;;;19.52;12.57;;;;;;;11.79;47.85;99875.72;4960684;28;20050;-76
2024/03/15 08:50:00;;;;;;;15.48;12.55;;;;;;;11.53;49.48;99880.22;4942362;28;20072;-74
2024/03/15 08:52:25;;;;;;;21.38;14.35;;;;;;;12.38;48.85;99890.75;4974605;28;20077;-75
2024/03/15 08:54:52;;;;;;;18.38;12.95;;;;;;;11.85;48.38;99879.59;4958503;28;20193;-76
2024/03/15 08:57:22;;;;;;;17.30;12.35;;;;;;;11.94;49.07;99883.97;4959918;28;20050;-76
2024/03/15 08:59:48;;;;;;;17.33;12.05;;;;;;;12.34;48.45;99875.25;4998911;28;20124;-75
2024/03/15 09:02:14;;;;;;;15.98;11.90;;;;;;;12.55;48.20;99879.13;5014544;28;20057;-76
2024/03/15 09:04:40;;;;;;;17.70;12.25;;;;;;;12.64;47.31;99883.44;5051413;28;20063;-75
2024/03/15 09:07:06;;;;;;;20.35;13.10;;;;;;;13.40;46.67;99886.63;5067752;28;20037;-72
2024/03/15 09:09:32;;;;;;;18.48;12.35;;;;;;;13.96;44.62;99889.09;5034374;28;20135;-76
2024/03/15 09:11:58;;;;;;;13.80;10.70;;;;;;;13.75;44.17;99880.84;5017627;28;20053;-76
2024/03/15 09:14:27;;;;;;;21.65;13.27;;;;;;;13.51;44.82;99896.94;4993834;28;20052;-76
2024/03/15 09:16:53;;;;;;;16.23;13.73;;;;;;;13.81;44.55;99900.69;4950016;28;20060;-76
2024/03/15 09:19:21;;;;;;;21.77;13.75;;;;;;;15.00;42.78;99891.16;5014534;28;20103;-76
2024/03/15 09:21:48;;;;;;;16.83;13.20;;;;;;;15.93;40.40;99873.63;4962528;28;20512;-73
2024/03/15 09:24:15;;;;;;;17.83;11.23;;;;;;;15.31;40.25;99864.28;4933985;28;20046;-76
2024/03/15 09:26:42;;;;;;;15.88;11.32;;;;;;;14.27;41.10;99873.16;4941840;29;20461;-76
2024/03/15 09:29:08;;;;;;;18.42;12.18;;;;;;;13.73;43.02;99866.03;4939110;29;20507;-74
2024/03/15 09:31:38;;;;;;;15.80;12.27;;;;;;;13.69;43.37;99872.69;4939260;29;20406;-76
2024/03/15 09:34:05;;;;;;;15.10;10.63;;;;;;;12.75;44.60;99883.13;4955228;29;20071;-75
2024/03/15 09:36:32;;;;;;;17.13;11.07;;;;;;;11.67;47.13;99866.38;4940088;29;20100;-75
2024/03/15 09:39:01;;;;;;;19.92;13.25;;;;;;;10.57;50.63;99868.91;4955870;29;20074;-75
2024/03/15 09:41:28;;;;;;;17.15;12.18;;;;;;;9.72;55.58;99881.72;4939972;29;20138;-75
2024/03/15 09:43:54;;;;;;;20.88;12.00;;;;;;;9.00;62.21;99871.88;4923812;29;20058;-75
2024/03/15 09:46:21;;;;;;;19.17;12.43;;;;;;;8.44;69.65;99870.00;4973694;28;20054;-74
2024/03/15 09:48:51;;;;;;;20.15;12.32;;;;;;;8.10;76.32;99883.72;4993501;28;20046;-78
2024/03/15 09:51:18;;;;;;;16.30;11.82;;;;;;;7.75;82.79;99875.41;4977301;28;20054;-75
2024/03/15 09:53:45;;;;;;;18.40;12.15;;;;;;;7.48;88.40;99867.22;4954753;29;20051;-75
2024/03/15 09:56:14;;;;;;;22.17;13.35;;;;;;;7.37;93.08;99865.53;4971719;28;20059;-75
2024/03/15 09:58:43;;;;;;;20.42;12.88;;;;;;;7.20;96.73;99857.34;4955562;28;20070;-75
2024/03/15 10:01:12;;;;;;;19.00;12.40;;;;;;;7.30;99.43;99864.38;4956798;28;20047;-76
2024/03/15 10:03:47;;;;;;;21.17;13.57;;;;;;;7.17;100.00;99876.09;4974643;28;20058;-75
2024/03/15 10:06:17;;;;;;;17.90;12.18;;;;;;;7.14;100.00;99858.72;4997461;28;20487;-76
2024/03/15 10:08:43;;;;;;;22.70;13.82;;;;;;;7.07;100.00;99875.22;4997098;28;20046;-75
2024/03/15 10:11:09;;;;;;;20.75;13.68;;;;;;;6.91;100.00;99859.84;4999173;28;20128;-76
2024/03/15 10:13:35;;;;;;;20.75;14.50;;;;;;;6.84;100.00;99866.63;5005634;28;20424;-75
2024/03/15 10:16:04;;;;;;;20.45;12.45;;;;;;;6.94;100.00;99867.50;4977219;28;20133;-75
2024/03/15 10:18:38;;;;;;;18.50;12.05;;;;;;;7.00;100.00;99867.00;5005533;28;20578;-74
2024/03/15 10:21:05;;;;;;;18.30;12.15;;;;;;;7.02;100.00;99869.50;4951906;28;20053;-77
2024/03/15 10:23:33;;;;;;;22.20;13.35;;;;;;;6.93;100.00;99867.63;4965473;28;20480;-74
2024/03/15 10:26:00;;;;;;;22.58;13.02;;;;;;;6.84;100.00;99872.72;4996033;28;20181;-74
2024/03/15 10:28:28;;;;;;;18.92;13.30;;;;;;;6.82;100.00;99858.00;4996758;28;20037;-75
2024/03/15 10:30:57;;;;;;;24.77;14.07;;;;;;;6.85;100.00;99866.50;4996788;28;20062;-75
2024/03/15 10:33:24;;;;;;;22.88;13.45;;;;;;;6.88;100.00;99865.38;5036778;28;20051;-74
2024/03/15 10:35:51;;;;;;;22.55;13.20;;;;;;;6.88;100.00;99871.50;5001392;28;20069;-75
2024/03/15 10:38:17;;;;;;;22.73;13.60;;;;;;;6.87;100.00;99858.44;5034248;28;20041;-75
2024/03/15 10:40:43;;;;;;;26.20;13.60;;;;;;;6.85;100.00;99858.56;5033233;28;20056;-74
2024/03/15 10:43:11;;;;;;;22.80;13.85;;;;;;;6.80;100.00;99871.31;4984708;28;20049;-75
2024/03/15 10:45:38;;;;;;;20.83;12.88;;;;;;;6.78;100.00;99860.03;5017148;28;20065;-75
2024/03/15 10:48:08;;;;;;;20.35;13.35;;;;;;;6.76;100.00;99866.41;5000538;28;20041;-75
2024/03/15 10:50:35;;;;;;;24.90;13.97;;;;;;;6.70;100.00;99866.94;5000345;28;20049;-75
2024/03/15 10:53:05;;;;;;;25.10;14.13;;;;;;;6.77;100.00;99866.28;5017299;28;20046;-75
2024/03/15 10:55:31;;;;;;;20.20;11.97;;;;;;;6.75;100.00;99870.84;4985125;28;20042;-75
2024/03/15 10:58:04;;;;;;;20.35;13.10;;;;;;;6.76;100.00;99856.69;4999912;28;20041;-74
2024/03/15 11:00:48;;;;;;;21.98;13.38;;;;;;;6.77;100.00;99853.09;5014846;28;20045;-75
2024/03/15 11:03:30;;;;;;;23.25;14.15;;;;;;;6.84;100.00;99863.97;4983970;28;20071;-73
2024/03/15 11:06:00;;;;;;;23.80;14.00;;;;;;;6.75;100.00;99865.56;5016534;28;20045;-75
2024/03/15 11:08:41;;;;;;;23.33;13.40;;;;;;;6.78;100.00;99856.59;4968176;28;20073;-75
2024/03/15 11:11:09;;;;;;;;;;;;;;;6.81;100.00;99864.25;4986238;28;20083;-75
2024/03/15 11:13:36;;;;;;;22.90;14.18;;;;;;;6.77;100.00;99862.81;5000181;28;19928;-75
2024/03/15 11:16:24;;;;;;;22.85;14.43;;;;;;;6.84;100.00;99848.97;4999828;28;20041;-74
2024/03/15 11:18:50;;;;;;;27.25;14.25;;;;;;;6.75;100.00;99849.75;4982992;28;20037;-75